Time;durP1;ratioP1;P1;durP2;ratioP2;P2;SDS_P1;SDS_P2;PMS_P1;PMS_P2;Temp;Humidity;BMP_temperature;BMP_pressure;BME280_temperature;BME280_humidity;BME280_pressure;Samples;Min_cycle;Max_cycle;Signal;HPM_P1;HPM_P2
2022/09/22 00:00:59;;;;;;;3.63;2.50;;;;;;;;;;5029583;28;20080;-56
2022/09/22 00:03:28;;;;;;;2.60;2.17;;;;;;;;;;5028909;28;20120;-56
2022/09/22 00:06:22;;;;;;;2.97;1.80;;;;;;;;;;5026927;28;20037;-57
2022/09/22 00:08:50;;;;;;;2.92;2.20;;;;;;;;;;5026578;28;20041;-57
2022/09/22 00:11:17;;;;;;;2.63;2.08;;;;;;;;;;5029560;28;20037;-56
2022/09/22 00:13:49;;;;;;;2.88;2.30;;;;;;;;;;5028685;28;20029;-56
2022/09/22 00:16:16;;;;;;;2.60;2.03;;;;;;;;;;5028857;28;20021;-56
2022/09/22 00:18:42;;;;;;;2.70;2.20;;;;;;;;;;5029523;28;20414;-56
2022/09/22 00:21:13;;;;;;;2.67;2.30;;;;;;;;;;5029756;28;20021;-56
2022/09/22 00:23:40;;;;;;;2.42;2.22;;;;;;;;;;5028353;28;20029;-56
2022/09/22 00:26:17;;;;;;;3.03;2.38;;;;;;;;;;5028827;28;20098;-56
2022/09/22 00:28:44;;;;;;;2.90;2.55;;;;;;;;;;5029373;28;20364;-56
2022/09/22 00:31:13;;;;;;;2.50;1.85;;;;;;;;;;5029643;28;20383;-56
2022/09/22 00:33:40;;;;;;;2.30;2.05;;;;;;;;;;5029013;28;20037;-56
2022/09/22 00:36:06;;;;;;;3.28;2.30;;;;;;;;;;5028344;28;20659;-56
2022/09/22 00:38:32;;;;;;;3.10;2.13;;;;;;;;;;5032350;28;20025;-56
2022/09/22 00:40:59;;;;;;;2.35;1.95;;;;;;;;;;5029651;28;20036;-56
2022/09/22 00:43:27;;;;;;;4.72;2.40;;;;;;;;;;5029331;28;20025;-56
2022/09/22 00:46:27;;;;;;;3.85;2.40;;;;;;;;;;5029900;28;20446;-56
2022/09/22 00:48:58;;;;;;;;;;;;;;;;;;5028689;28;20037;-56
2022/09/22 00:51:29;;;;;;;3.20;2.15;;;;;;;;;;5025500;28;20302;-56
2022/09/22 00:53:57;;;;;;;3.30;2.22;;;;;;;;;;5030912;28;20033;-57
2022/09/22 00:56:38;;;;;;;2.80;2.22;;;;;;;;;;5027818;28;20040;-56
2022/09/22 00:59:10;;;;;;;3.78;2.33;;;;;;;;;;5029028;28;20025;-56
2022/09/22 01:01:38;;;;;;;4.13;2.17;;;;;;;;;;5027070;28;20125;-56
2022/09/22 01:04:04;;;;;;;3.78;2.55;;;;;;;;;;5028940;28;20022;-56
2022/09/22 01:06:29;;;;;;;2.80;2.33;;;;;;;;;;5032362;28;20091;-57
2022/09/22 01:08:56;;;;;;;3.70;2.22;;;;;;;;;;5027728;28;20052;-56
2022/09/22 01:11:36;;;;;;;3.45;2.10;;;;;;;;;;5026887;28;20480;-56
2022/09/22 01:14:04;;;;;;;2.58;1.75;;;;;;;;;;5028438;28;20055;-56
2022/09/22 01:17:12;;;;;;;4.28;1.80;;;;;;;;;;5028258;28;20040;-56
2022/09/22 01:19:55;;;;;;;3.10;2.13;;;;;;;;;;5019497;28;21999;-56
2022/09/22 01:22:36;;;;;;;2.72;2.20;;;;;;;;;;5028031;28;20032;-57
2022/09/22 01:25:10;;;;;;;3.05;2.15;;;;;;;;;;5028859;28;20040;-56
2022/09/22 01:28:16;;;;;;;3.75;2.38;;;;;;;;;;5037038;28;20116;-56
2022/09/22 01:31:13;;;;;;;6.10;5.60;;;;;;;;;;5003544;28;20411;-56
2022/09/22 01:33:48;;;;;;;3.58;2.70;;;;;;;;;;5028537;28;20029;-56
2022/09/22 01:36:32;;;;;;;4.28;2.47;;;;;;;;;;5028925;28;20022;-56
2022/09/22 01:39:22;;;;;;;3.95;2.55;;;;;;;;;;5027724;28;20064;-56
2022/09/22 01:41:59;;;;;;;6.28;2.50;;;;;;;;;;5027079;28;20033;-56
2022/09/22 01:44:32;;;;;;;3.78;2.20;;;;;;;;;;5029199;28;20028;-57
2022/09/22 01:47:12;;;;;;;4.22;2.30;;;;;;;;;;5027372;28;20025;-56
2022/09/22 01:49:43;;;;;;;3.90;2.85;;;;;;;;;;5032413;28;20064;-56
2022/09/22 01:52:15;;;;;;;4.70;3.20;;;;;;;;;;5027450;28;20036;-56
2022/09/22 01:54:46;;;;;;;4.63;2.83;;;;;;;;;;5025999;28;20030;-56
2022/09/22 01:57:17;;;;;;;4.00;3.15;;;;;;;;;;5028143;28;20107;-56
2022/09/22 01:59:49;;;;;;;3.88;2.63;;;;;;;;;;5031114;28;20057;-56
2022/09/22 02:02:41;;;;;;;3.50;2.80;;;;;;;;;;5024401;28;20029;-56
2022/09/22 02:05:12;;;;;;;3.20;2.45;;;;;;;;;;5027520;28;20120;-57
2022/09/22 02:07:41;;;;;;;4.93;2.38;;;;;;;;;;5028161;28;20301;-56
2022/09/22 02:10:13;;;;;;;4.03;2.45;;;;;;;;;;5027992;28;20052;-56
2022/09/22 02:12:39;;;;;;;4.55;2.88;;;;;;;;;;5026355;28;20029;-56
2022/09/22 02:15:58;;;;;;;4.20;2.47;;;;;;;;;;5027322;28;20022;-55
2022/09/22 02:17:56;;;;;;;;;;;;;;;;;;5027048;28;20038;-56
2022/09/22 02:20:21;;;;;;;4.38;2.72;;;;;;;;;;5030751;28;19928;-56
2022/09/22 02:22:47;;;;;;;3.15;2.60;;;;;;;;;;5032623;28;20025;-55
2022/09/22 02:25:12;;;;;;;4.03;2.63;;;;;;;;;;5030642;28;20033;-56
2022/09/22 02:27:39;;;;;;;3.47;2.60;;;;;;;;;;5032045;28;20390;-56
2022/09/22 02:30:08;;;;;;;2.97;2.40;;;;;;;;;;5026764;28;20208;-56
2022/09/22 02:32:36;;;;;;;2.92;2.25;;;;;;;;;;5030759;28;20025;-57
2022/09/22 02:35:02;;;;;;;5.22;2.80;;;;;;;;;;5031383;28;20518;-56
2022/09/22 02:37:52;;;;;;;5.13;2.50;;;;;;;;;;5030412;28;20025;-56
2022/09/22 02:40:17;;;;;;;;;;;;;;;;;;5031767;28;20035;-56
2022/09/22 02:42:48;;;;;;;5.72;2.83;;;;;;;;;;5031648;28;19917;-56
2022/09/22 02:45:22;;;;;;;5.00;3.20;;;;;;;;;;5031420;28;20608;-57
2022/09/22 02:47:51;;;;;;;4.97;3.10;;;;;;;;;;5030365;28;20040;-56
2022/09/22 02:50:20;;;;;;;4.78;2.90;;;;;;;;;;5031571;28;20032;-56
2022/09/22 02:52:45;;;;;;;4.57;3.20;;;;;;;;;;5030274;28;20033;-55
2022/09/22 02:55:12;;;;;;;4.97;3.08;;;;;;;;;;5032333;28;20033;-56
2022/09/22 02:57:38;;;;;;;6.70;2.90;;;;;;;;;;5030224;28;20040;-55
2022/09/22 03:00:05;;;;;;;4.03;2.53;;;;;;;;;;5031545;28;20037;-56
2022/09/22 03:02:31;;;;;;;3.42;2.60;;;;;;;;;;5030035;28;20407;-56
2022/09/22 03:04:56;;;;;;;6.10;2.75;;;;;;;;;;5032798;28;20017;-56
2022/09/22 03:07:22;;;;;;;4.32;3.00;;;;;;;;;;5029127;28;20438;-56
2022/09/22 03:09:47;;;;;;;4.40;2.58;;;;;;;;;;5031201;28;20036;-56
2022/09/22 03:12:13;;;;;;;4.18;2.60;;;;;;;;;;5033104;28;20028;-55
2022/09/22 03:14:38;;;;;;;3.78;2.50;;;;;;;;;;5033952;28;20032;-55
2022/09/22 03:17:04;;;;;;;4.50;2.45;;;;;;;;;;5031000;28;20499;-56
2022/09/22 03:19:29;;;;;;;4.38;3.22;;;;;;;;;;5031250;28;20403;-56
2022/09/22 03:21:54;;;;;;;3.88;2.33;;;;;;;;;;5030436;28;20036;-55
2022/09/22 03:24:20;;;;;;;3.88;2.80;;;;;;;;;;5031336;28;20128;-56
2022/09/22 03:26:45;;;;;;;4.65;2.78;;;;;;;;;;5030549;28;20054;-56
2022/09/22 03:29:10;;;;;;;3.08;2.70;;;;;;;;;;5029313;28;20030;-57
2022/09/22 03:31:36;;;;;;;5.00;3.03;;;;;;;;;;5029634;28;20029;-57
2022/09/22 03:34:01;;;;;;;3.22;2.80;;;;;;;;;;5030729;28;20476;-57
2022/09/22 03:36:27;;;;;;;4.40;3.13;;;;;;;;;;5030898;28;20033;-57
2022/09/22 03:38:52;;;;;;;4.45;3.03;;;;;;;;;;5030380;28;20443;-58
2022/09/22 03:41:18;;;;;;;5.40;3.03;;;;;;;;;;5029722;28;20124;-57
2022/09/22 03:43:44;;;;;;;6.45;3.60;;;;;;;;;;5032289;28;20525;-57
2022/09/22 03:46:09;;;;;;;10.15;3.63;;;;;;;;;;5030085;28;20038;-57
2022/09/22 03:48:35;;;;;;;5.53;3.03;;;;;;;;;;5030518;28;20029;-56
2022/09/22 03:51:01;;;;;;;10.80;5.15;;;;;;;;;;5030861;28;20021;-56
2022/09/22 03:53:26;;;;;;;8.30;4.28;;;;;;;;;;5026663;28;20041;-55
2022/09/22 03:55:52;;;;;;;6.55;3.33;;;;;;;;;;5029569;28;20026;-55
2022/09/22 03:58:21;;;;;;;11.60;4.75;;;;;;;;;;5029718;28;20204;-57
2022/09/22 04:00:47;;;;;;;14.10;5.53;;;;;;;;;;5029368;28;20061;-57
2022/09/22 04:03:13;;;;;;;22.63;8.13;;;;;;;;;;5028886;28;20044;-54
2022/09/22 04:05:38;;;;;;;11.63;5.20;;;;;;;;;;5029225;28;20026;-57
2022/09/22 04:08:04;;;;;;;11.82;5.30;;;;;;;;;;5029855;28;20026;-56
2022/09/22 04:10:29;;;;;;;8.60;4.28;;;;;;;;;;5029665;28;20040;-56
2022/09/22 04:12:54;;;;;;;7.35;3.85;;;;;;;;;;5027562;28;20029;-57
2022/09/22 04:15:20;;;;;;;8.05;4.07;;;;;;;;;;5029715;28;20030;-57
2022/09/22 04:17:45;;;;;;;4.93;3.58;;;;;;;;;;5027194;28;20237;-56
2022/09/22 04:20:11;;;;;;;6.10;4.32;;;;;;;;;;5026550;28;20021;-57
2022/09/22 04:22:37;;;;;;;5.53;4.20;;;;;;;;;;5023888;28;20368;-57
2022/09/22 04:25:04;;;;;;;6.47;3.90;;;;;;;;;;5029856;28;20471;-60
2022/09/22 04:27:29;;;;;;;8.43;4.90;;;;;;;;;;5030747;28;20402;-60
2022/09/22 04:29:55;;;;;;;9.93;5.18;;;;;;;;;;5029437;28;20043;-60
2022/09/22 04:32:20;;;;;;;5.22;3.30;;;;;;;;;;5031988;28;20498;-60
2022/09/22 04:34:47;;;;;;;7.15;3.83;;;;;;;;;;5028713;28;20281;-60
2022/09/22 04:37:12;;;;;;;7.80;3.80;;;;;;;;;;5032563;28;20359;-60
2022/09/22 04:39:38;;;;;;;5.25;4.10;;;;;;;;;;5029391;28;20036;-60
2022/09/22 04:42:04;;;;;;;7.20;4.00;;;;;;;;;;5028366;28;20025;-60
2022/09/22 04:44:29;;;;;;;6.35;4.15;;;;;;;;;;5029213;28;20017;-60
2022/09/22 04:46:56;;;;;;;32.47;11.60;;;;;;;;;;5030585;28;20034;-60
2022/09/22 04:49:21;;;;;;;26.48;10.85;;;;;;;;;;5028779;28;20495;-59
2022/09/22 04:51:46;;;;;;;18.23;7.25;;;;;;;;;;5029102;28;20051;-59
2022/09/22 04:54:13;;;;;;;18.10;8.00;;;;;;;;;;5028425;28;20021;-59
2022/09/22 04:56:39;;;;;;;14.20;6.90;;;;;;;;;;5028757;28;20060;-59
2022/09/22 04:59:05;;;;;;;10.95;5.60;;;;;;;;;;5028048;28;20024;-52
2022/09/22 05:01:30;;;;;;;8.10;4.68;;;;;;;;;;5036196;28;20029;-54
2022/09/22 05:03:56;;;;;;;5.88;4.05;;;;;;;;;;5027827;28;20032;-54
2022/09/22 05:06:21;;;;;;;9.05;3.95;;;;;;;;;;5024124;28;20033;-59
2022/09/22 05:08:46;;;;;;;6.22;4.38;;;;;;;;;;5023062;28;20033;-59
2022/09/22 05:11:12;;;;;;;6.78;3.95;;;;;;;;;;5027803;28;20029;-58
2022/09/22 05:13:39;;;;;;;9.10;5.07;;;;;;;;;;5029259;28;20025;-59
2022/09/22 05:16:07;;;;;;;11.20;6.22;;;;;;;;;;5027608;28;20044;-59
2022/09/22 05:18:32;;;;;;;7.95;4.78;;;;;;;;;;5031446;28;20060;-59
2022/09/22 05:20:58;;;;;;;8.02;4.93;;;;;;;;;;5031019;28;20060;-59
2022/09/22 05:23:24;;;;;;;9.20;6.07;;;;;;;;;;5027156;28;20584;-59
2022/09/22 05:25:49;;;;;;;8.13;5.65;;;;;;;;;;5028923;28;20021;-59
2022/09/22 05:28:15;;;;;;;7.88;5.22;;;;;;;;;;5030360;28;20467;-59
2022/09/22 05:30:40;;;;;;;8.48;5.30;;;;;;;;;;5028442;28;20021;-59
2022/09/22 05:33:05;;;;;;;5.80;4.32;;;;;;;;;;5027701;28;20029;-59
2022/09/22 05:35:31;;;;;;;5.00;4.20;;;;;;;;;;5028062;28;20032;-59
2022/09/22 05:37:56;;;;;;;6.13;4.35;;;;;;;;;;5029760;28;20029;-59
2022/09/22 05:40:23;;;;;;;9.38;5.82;;;;;;;;;;5028011;28;20416;-58
2022/09/22 05:42:50;;;;;;;9.18;5.38;;;;;;;;;;5026887;28;20026;-58
2022/09/22 05:45:17;;;;;;;9.05;4.53;;;;;;;;;;5027126;28;20075;-58
2022/09/22 05:47:43;;;;;;;9.13;5.07;;;;;;;;;;5030063;28;20030;-58
2022/09/22 05:50:10;;;;;;;11.65;5.78;;;;;;;;;;5027725;28;20144;-58
2022/09/22 05:52:35;;;;;;;9.38;4.60;;;;;;;;;;5029843;28;20080;-58
2022/09/22 05:55:01;;;;;;;9.25;5.72;;;;;;;;;;5034162;28;20025;-58
2022/09/22 05:57:26;;;;;;;9.02;5.47;;;;;;;;;;5037248;28;20029;-58
2022/09/22 05:59:55;;;;;;;7.55;5.57;;;;;;;;;;5030793;28;20033;-58
2022/09/22 06:02:22;;;;;;;8.00;5.40;;;;;;;;;;5028544;28;20459;-58
2022/09/22 06:04:48;;;;;;;7.90;4.53;;;;;;;;;;5030248;28;20551;-59
2022/09/22 06:07:13;;;;;;;10.95;5.70;;;;;;;;;;5033246;28;20033;-58
2022/09/22 06:09:38;;;;;;;13.15;7.13;;;;;;;;;;5032709;28;20570;-58
2022/09/22 06:12:05;;;;;;;13.50;6.90;;;;;;;;;;5030558;28;20035;-58
2022/09/22 06:14:30;;;;;;;13.73;7.28;;;;;;;;;;5030199;28;20025;-58
2022/09/22 06:16:57;;;;;;;20.48;10.52;;;;;;;;;;5031072;28;20037;-58
2022/09/22 06:19:23;;;;;;;16.30;7.47;;;;;;;;;;5030657;28;20022;-58
2022/09/22 06:21:49;;;;;;;12.57;6.85;;;;;;;;;;5027480;28;20418;-58
2022/09/22 06:24:14;;;;;;;16.23;7.97;;;;;;;;;;5029817;28;20148;-58
2022/09/22 06:26:40;;;;;;;14.15;7.55;;;;;;;;;;5030206;28;20418;-58
2022/09/22 06:29:07;;;;;;;32.38;12.10;;;;;;;;;;5029608;28;20556;-58
2022/09/22 06:31:32;;;;;;;23.50;10.32;;;;;;;;;;5030493;28;20155;-58
2022/09/22 06:33:57;;;;;;;11.43;4.65;;;;;;;;;;5028642;28;20430;-58
2022/09/22 06:36:29;;;;;;;8.82;4.85;;;;;;;;;;5029138;28;20021;-58
2022/09/22 06:38:57;;;;;;;5.70;3.80;;;;;;;;;;5029198;28;20087;-58
2022/09/22 06:41:30;;;;;;;10.82;5.97;;;;;;;;;;5028862;28;20349;-58
2022/09/22 06:43:56;;;;;;;10.45;5.85;;;;;;;;;;5029136;28;20183;-58
2022/09/22 06:46:26;;;;;;;10.32;6.70;;;;;;;;;;5031900;28;20464;-58
2022/09/22 06:48:56;;;;;;;10.07;6.38;;;;;;;;;;5034357;28;20123;-58
2022/09/22 06:51:26;;;;;;;16.35;10.48;;;;;;;;;;5032370;28;20171;-58
2022/09/22 06:53:55;;;;;;;15.38;10.35;;;;;;;;;;5030051;28;20021;-58
2022/09/22 06:56:23;;;;;;;12.88;8.52;;;;;;;;;;5034339;28;20072;-59
2022/09/22 06:58:49;;;;;;;11.52;8.23;;;;;;;;;;5029236;28;20295;-58
2022/09/22 07:01:15;;;;;;;13.85;8.70;;;;;;;;;;5027476;28;20040;-58
2022/09/22 07:03:41;;;;;;;16.17;9.05;;;;;;;;;;5033515;28;20026;-58
2022/09/22 07:06:08;;;;;;;20.70;10.95;;;;;;;;;;5033219;28;20022;-59
2022/09/22 07:08:37;;;;;;;18.42;10.88;;;;;;;;;;5030879;28;20033;-59
2022/09/22 07:11:07;;;;;;;21.73;11.32;;;;;;;;;;5029615;28;20025;-59
2022/09/22 07:13:38;;;;;;;17.92;11.07;;;;;;;;;;5030185;28;20052;-59
2022/09/22 07:16:08;;;;;;;19.25;11.40;;;;;;;;;;5029586;28;20147;-59
2022/09/22 07:18:39;;;;;;;20.00;11.30;;;;;;;;;;5033569;28;20049;-59
2022/09/22 07:21:07;;;;;;;19.67;10.95;;;;;;;;;;5030997;28;20179;-59
2022/09/22 07:23:34;;;;;;;17.63;11.05;;;;;;;;;;5028758;28;20033;-59
2022/09/22 07:26:01;;;;;;;18.88;11.38;;;;;;;;;;5030018;28;20021;-59
2022/09/22 07:28:28;;;;;;;20.63;12.65;;;;;;;;;;5031137;28;20040;-59
2022/09/22 07:30:56;;;;;;;20.25;11.68;;;;;;;;;;5030491;28;20032;-59
2022/09/22 07:33:22;;;;;;;20.55;11.18;;;;;;;;;;5028386;28;20399;-58
2022/09/22 07:35:57;;;;;;;18.58;11.25;;;;;;;;;;5027430;28;20028;-59
2022/09/22 07:38:28;;;;;;;15.20;9.40;;;;;;;;;;5028256;28;20052;-59
2022/09/22 07:40:54;;;;;;;15.73;9.55;;;;;;;;;;5030460;28;20037;-59
2022/09/22 07:43:19;;;;;;;20.67;11.65;;;;;;;;;;5034363;28;20033;-59
2022/09/22 07:45:56;;;;;;;22.83;11.30;;;;;;;;;;5030086;28;20040;-59
2022/09/22 07:48:35;;;;;;;21.40;11.60;;;;;;;;;;5029381;28;20025;-59
2022/09/22 07:51:01;;;;;;;21.67;11.30;;;;;;;;;;5031650;28;20418;-59
2022/09/22 07:53:26;;;;;;;18.05;9.30;;;;;;;;;;5033379;28;20294;-59
2022/09/22 07:55:52;;;;;;;16.55;9.73;;;;;;;;;;5033246;28;20025;-59
2022/09/22 07:58:17;;;;;;;13.82;9.20;;;;;;;;;;5029186;28;20060;-59
2022/09/22 08:00:42;;;;;;;17.67;10.30;;;;;;;;;;5029795;28;20407;-59
2022/09/22 08:03:08;;;;;;;16.55;10.50;;;;;;;;;;5028855;28;20116;-59
2022/09/22 08:05:33;;;;;;;14.00;9.57;;;;;;;;;;5032036;28;20497;-59
2022/09/22 08:08:01;;;;;;;17.67;9.90;;;;;;;;;;5029659;28;20033;-58
2022/09/22 08:10:26;;;;;;;17.42;10.30;;;;;;;;;;5028945;28;20061;-58
2022/09/22 08:12:53;;;;;;;16.15;9.75;;;;;;;;;;5027800;28;20056;-59
2022/09/22 08:15:22;;;;;;;15.73;9.15;;;;;;;;;;5033208;28;20030;-59
2022/09/22 08:17:48;;;;;;;16.35;9.15;;;;;;;;;;5030956;28;20033;-59
2022/09/22 08:20:14;;;;;;;12.30;8.80;;;;;;;;;;5029192;28;20464;-59
2022/09/22 08:22:40;;;;;;;16.27;9.00;;;;;;;;;;5027728;28;20111;-59
2022/09/22 08:25:06;;;;;;;15.48;9.18;;;;;;;;;;5026668;28;20036;-59
2022/09/22 08:27:35;;;;;;;12.73;7.70;;;;;;;;;;5028735;28;20484;-59
2022/09/22 08:30:01;;;;;;;13.77;8.60;;;;;;;;;;5028746;28;20407;-59
2022/09/22 08:32:29;;;;;;;12.98;8.85;;;;;;;;;;5027010;28;20483;-58
2022/09/22 08:34:56;;;;;;;14.45;8.93;;;;;;;;;;5029210;28;20453;-59
2022/09/22 08:37:23;;;;;;;16.75;8.25;;;;;;;;;;5027329;28;20040;-59
2022/09/22 08:39:48;;;;;;;10.45;6.47;;;;;;;;;;5028516;28;20425;-59
2022/09/22 08:42:21;;;;;;;10.13;7.10;;;;;;;;;;5028475;28;20057;-58
2022/09/22 08:44:50;;;;;;;11.73;6.90;;;;;;;;;;5030155;28;20138;-59
2022/09/22 08:51:50;;;;;;;11.02;6.78;;;;;;;;;;5028870;28;20021;-59
2022/09/22 08:53:15;;;;;;;13.90;5.93;;;;;;;;;;5023050;28;20309;-59
2022/09/22 08:55:45;;;;;;;11.85;5.47;;;;;;;;;;5027795;28;20026;-59
2022/09/22 08:58:23;;;;;;;3.50;2.42;;;;;;;;;;5028827;28;20329;-58
2022/09/22 09:01:21;;;;;;;4.82;3.72;;;;;;;;;;5029446;28;20040;-59
2022/09/22 09:03:49;;;;;;;2.42;2.03;;;;;;;;;;5028541;28;20083;-59
2022/09/22 09:06:27;;;;;;;6.43;2.20;;;;;;;;;;5029737;28;20029;-59
2022/09/22 09:09:02;;;;;;;3.80;2.05;;;;;;;;;;5029580;28;20055;-59
2022/09/22 09:11:52;;;;;;;1.95;1.75;;;;;;;;;;5029699;28;20055;-59
2022/09/22 09:14:43;;;;;;;3.25;1.85;;;;;;;;;;5030320;28;20029;-59
2022/09/22 09:17:29;;;;;;;2.30;1.80;;;;;;;;;;5010020;28;20517;-59
2022/09/22 09:20:00;;;;;;;2.70;1.75;;;;;;;;;;5029711;28;20029;-59
2022/09/22 09:22:31;;;;;;;3.13;1.80;;;;;;;;;;5028564;28;20151;-59
2022/09/22 09:25:01;;;;;;;3.08;2.10;;;;;;;;;;5028305;28;20475;-59
2022/09/22 09:27:33;;;;;;;3.45;1.70;;;;;;;;;;5029247;28;20033;-59
2022/09/22 09:30:05;;;;;;;3.65;2.13;;;;;;;;;;5028286;28;20325;-59
2022/09/22 09:32:49;;;;;;;3.47;2.13;;;;;;;;;;5024419;28;20021;-59
2022/09/22 09:35:18;;;;;;;2.67;1.80;;;;;;;;;;5027169;28;20112;-59
2022/09/22 09:37:46;;;;;;;2.75;1.80;;;;;;;;;;5029528;28;20087;-59
2022/09/22 09:40:15;;;;;;;3.33;2.53;;;;;;;;;;5029055;28;20025;-59
2022/09/22 09:42:42;;;;;;;5.53;2.92;;;;;;;;;;5028846;28;20573;-59
2022/09/22 09:45:15;;;;;;;2.65;1.83;;;;;;;;;;5028380;28;20479;-59
2022/09/22 09:47:50;;;;;;;4.35;1.70;;;;;;;;;;5025331;28;20072;-59
2022/09/22 09:50:15;;;;;;;3.15;1.95;;;;;;;;;;5025268;28;20064;-59
2022/09/22 09:52:41;;;;;;;2.15;1.40;;;;;;;;;;5025442;28;20049;-59
2022/09/22 09:55:25;;;;;;;2.17;1.30;;;;;;;;;;5029092;28;20384;-59
2022/09/22 09:58:05;;;;;;;3.05;1.50;;;;;;;;;;5028043;28;20288;-59
2022/09/22 10:00:31;;;;;;;3.38;1.95;;;;;;;;;;5029573;28;20021;-59
2022/09/22 10:03:14;;;;;;;1.98;1.60;;;;;;;;;;5026497;28;20033;-59
2022/09/22 10:05:42;;;;;;;2.08;1.40;;;;;;;;;;5025599;28;20036;-59
2022/09/22 10:08:19;;;;;;;2.40;2.20;;;;;;;;;;5027734;28;20124;-59
2022/09/22 10:10:46;;;;;;;2.08;1.67;;;;;;;;;;5028619;28;20029;-59
2022/09/22 10:13:11;;;;;;;2.25;1.80;;;;;;;;;;5027576;28;20084;-59
2022/09/22 10:15:39;;;;;;;5.47;1.70;;;;;;;;;;5027407;28;20033;-59
2022/09/22 10:18:23;;;;;;;1.88;1.50;;;;;;;;;;5026583;28;20483;-59
2022/09/22 10:21:06;;;;;;;3.67;1.80;;;;;;;;;;5025987;28;20025;-59
2022/09/22 10:23:32;;;;;;;3.22;1.50;;;;;;;;;;5022941;28;20049;-59
2022/09/22 10:26:27;;;;;;;1.65;1.52;;;;;;;;;;5019400;28;20392;-59
2022/09/22 10:29:11;;;;;;;1.70;1.58;;;;;;;;;;5025650;28;20062;-59
2022/09/22 10:31:37;;;;;;;2.05;1.70;;;;;;;;;;5019193;28;20487;-59
2022/09/22 10:34:05;;;;;;;1.80;1.45;;;;;;;;;;5022418;28;20026;-59
2022/09/22 10:36:32;;;;;;;1.98;1.65;;;;;;;;;;5025791;28;20160;-59
2022/09/22 10:38:57;;;;;;;1.50;1.23;;;;;;;;;;5029584;28;20021;-59
2022/09/22 10:41:27;;;;;;;2.65;1.60;;;;;;;;;;5029469;28;20534;-59
2022/09/22 10:44:02;;;;;;;2.35;1.80;;;;;;;;;;5029231;28;20021;-59
2022/09/22 10:46:49;;;;;;;3.70;1.50;;;;;;;;;;5029885;28;20025;-59
2022/09/22 10:49:32;;;;;;;1.27;1.10;;;;;;;;;;5025422;28;20033;-59
2022/09/22 10:52:20;;;;;;;2.55;1.20;;;;;;;;;;5032680;28;20029;-59
2022/09/22 10:55:05;;;;;;;1.73;1.48;;;;;;;;;;5028878;28;20033;-59
2022/09/22 10:58:02;;;;;;;2.40;1.40;;;;;;;;;;5044751;28;20394;-59
2022/09/22 11:00:33;;;;;;;3.45;1.23;;;;;;;;;;5015002;28;20048;-59
2022/09/22 11:03:17;;;;;;;1.90;1.48;;;;;;;;;;5035435;28;20478;-59
2022/09/22 11:12:19;;;;;;;1.77;1.40;;;;;;;;;;5031354;28;20521;-59
2022/09/22 11:15:19;;;;;;;1.50;1.35;;;;;;;;;;5031242;28;20044;-59
2022/09/22 11:18:22;;;;;;;2.47;1.55;;;;;;;;;;5031991;28;20084;-59
2022/09/22 11:20:55;;;;;;;2.13;1.20;;;;;;;;;;5031555;28;20025;-60
2022/09/22 11:23:44;;;;;;;1.90;1.20;;;;;;;;;;5024784;28;20028;-59
2022/09/22 11:26:27;;;;;;;5.05;1.42;;;;;;;;;;5031068;28;20108;-59
2022/09/22 11:29:08;;;;;;;1.67;1.58;;;;;;;;;;5029522;28;20490;-59
2022/09/22 11:32:12;;;;;;;2.40;1.42;;;;;;;;;;5029331;28;20487;-59
2022/09/22 11:34:55;;;;;;;2.55;1.35;;;;;;;;;;5028919;28;20021;-59
2022/09/22 11:37:38;;;;;;;4.10;1.08;;;;;;;;;;5029937;28;20029;-59
2022/09/22 11:40:32;;;;;;;1.80;1.42;;;;;;;;;;5029660;28;20029;-59
2022/09/22 11:43:30;;;;;;;2.35;1.27;;;;;;;;;;5027705;28;20021;-59
2022/09/22 11:46:14;;;;;;;4.18;1.40;;;;;;;;;;5010522;28;20041;-59
2022/09/22 11:48:45;;;;;;;1.98;1.30;;;;;;;;;;5027663;28;20021;-59
2022/09/22 11:51:22;;;;;;;3.00;1.35;;;;;;;;;;5028888;28;20126;-59
2022/09/22 11:53:58;;;;;;;1.85;1.50;;;;;;;;;;5032321;28;20021;-59
2022/09/22 11:56:55;;;;;;;4.65;1.30;;;;;;;;;;5029166;28;20057;-59
2022/09/22 11:59:29;;;;;;;5.53;1.55;;;;;;;;;;5019506;28;20045;-59
2022/09/22 12:01:58;;;;;;;2.17;1.33;;;;;;;;;;5025849;28;20025;-59
2022/09/22 12:04:36;;;;;;;4.85;1.33;;;;;;;;;;5026727;28;20029;-59
2022/09/22 12:07:08;;;;;;;1.92;1.30;;;;;;;;;;5027070;28;20041;-59
2022/09/22 12:09:42;;;;;;;1.75;1.20;;;;;;;;;;5029627;28;20017;-59
2022/09/22 12:12:15;;;;;;;3.88;1.48;;;;;;;;;;5036613;28;20244;-59
2022/09/22 12:14:43;;;;;;;5.05;1.30;;;;;;;;;;5029198;28;20079;-59
2022/09/22 12:17:21;;;;;;;1.33;1.10;;;;;;;;;;5030152;28;20060;-59
2022/09/22 12:19:46;;;;;;;3.35;1.60;;;;;;;;;;5029379;28;20047;-57
2022/09/22 12:22:12;;;;;;;14.65;2.47;;;;;;;;;;5028530;28;20025;-59
2022/09/22 12:24:38;;;;;;;6.70;2.70;;;;;;;;;;5026000;28;20071;-58
2022/09/22 12:27:18;;;;;;;7.07;2.35;;;;;;;;;;5027968;28;20438;-61
2022/09/22 12:29:45;;;;;;;6.63;1.95;;;;;;;;;;5026802;28;20043;-60
2022/09/22 12:32:22;;;;;;;3.22;1.65;;;;;;;;;;5030901;28;20106;-61
2022/09/22 12:34:48;;;;;;;3.50;1.50;;;;;;;;;;5032524;28;20056;-59
2022/09/22 12:37:27;;;;;;;4.90;1.70;;;;;;;;;;5023359;28;20487;-60
2022/09/22 12:39:53;;;;;;;5.03;1.70;;;;;;;;;;5028660;28;20029;-59
2022/09/22 12:42:25;;;;;;;3.60;1.50;;;;;;;;;;5027928;28;20022;-59
2022/09/22 12:44:57;;;;;;;3.85;1.50;;;;;;;;;;5029445;28;20048;-59
2022/09/22 12:47:47;;;;;;;2.25;1.55;;;;;;;;;;5031825;28;20542;-59
2022/09/22 12:50:12;;;;;;;3.42;1.95;;;;;;;;;;5028269;28;20029;-59
2022/09/22 12:52:40;;;;;;;3.05;1.70;;;;;;;;;;5028333;28;20059;-59
2022/09/22 12:55:27;;;;;;;2.28;1.80;;;;;;;;;;5030691;28;20025;-59
2022/09/22 12:57:58;;;;;;;3.15;1.52;;;;;;;;;;5031253;28;20026;-59
2022/09/22 13:00:39;;;;;;;2.13;1.92;;;;;;;;;;5033950;28;20040;-59
2022/09/22 13:03:23;;;;;;;1.45;1.35;;;;;;;;;;5026109;28;20442;-60
2022/09/22 13:05:54;;;;;;;5.13;1.60;;;;;;;;;;5029170;28;20053;-60
2022/09/22 13:08:44;;;;;;;1.85;1.67;;;;;;;;;;5029704;28;20475;-58
2022/09/22 13:11:09;;;;;;;1.83;1.40;;;;;;;;;;5031500;28;20107;-59
2022/09/22 13:13:35;;;;;;;2.03;1.50;;;;;;;;;;5029155;28;20131;-59
2022/09/22 13:16:23;;;;;;;2.70;1.58;;;;;;;;;;5027020;28;20028;-59
2022/09/22 13:18:51;;;;;;;1.65;1.48;;;;;;;;;;5029108;28;20492;-59
2022/09/22 13:21:21;;;;;;;2.17;1.60;;;;;;;;;;5029541;28;20029;-59
2022/09/22 13:23:50;;;;;;;5.50;1.48;;;;;;;;;;5029187;28;20037;-59
2022/09/22 13:26:23;;;;;;;2.85;1.50;;;;;;;;;;5029562;28;20133;-59
2022/09/22 13:29:18;;;;;;;2.75;1.40;;;;;;;;;;5028493;28;20042;-59
2022/09/22 13:31:47;;;;;;;2.17;1.55;;;;;;;;;;5027325;28;20115;-58
2022/09/22 13:34:32;;;;;;;;;;;;;;;;;;5029219;28;20021;-59
2022/09/22 13:37:08;;;;;;;4.20;1.70;;;;;;;;;;5028791;28;19912;-59
2022/09/22 13:39:42;;;;;;;2.30;1.30;;;;;;;;;;5032494;28;20059;-59
2022/09/22 13:42:14;;;;;;;2.47;1.20;;;;;;;;;;5027714;28;20116;-59
2022/09/22 13:44:45;;;;;;;1.30;1.10;;;;;;;;;;5026216;28;20052;-59
2022/09/22 13:47:16;;;;;;;1.98;1.40;;;;;;;;;;5025883;28;20116;-60
2022/09/22 13:49:54;;;;;;;1.48;1.30;;;;;;;;;;5030222;28;20112;-60
2022/09/22 13:52:26;;;;;;;;;;;;;;;;;;5028668;28;20037;-59
2022/09/22 13:54:54;;;;;;;1.58;1.48;;;;;;;;;;5027225;28;19963;-60
2022/09/22 13:57:27;;;;;;;1.73;1.52;;;;;;;;;;5027000;28;20991;-61
2022/09/22 13:59:56;;;;;;;2.22;1.55;;;;;;;;;;5030500;28;20041;-60
2022/09/22 14:02:23;;;;;;;2.38;1.80;;;;;;;;;;5024959;28;20083;-60
2022/09/22 14:04:52;;;;;;;3.25;1.40;;;;;;;;;;5029517;28;20094;-56
2022/09/22 14:07:23;;;;;;;2.47;1.10;;;;;;;;;;5028846;28;20029;-60
2022/09/22 14:09:49;;;;;;;4.85;1.63;;;;;;;;;;5027368;28;20550;-59
2022/09/22 14:12:16;;;;;;;1.83;1.48;;;;;;;;;;5028306;28;20088;-60
2022/09/22 14:14:41;;;;;;;4.22;1.52;;;;;;;;;;5030163;28;20033;-60
2022/09/22 14:17:22;;;;;;;1.25;1.10;;;;;;;;;;5030997;28;20032;-59
2022/09/22 14:19:59;;;;;;;2.92;1.40;;;;;;;;;;5030778;28;20380;-59
2022/09/22 14:22:27;;;;;;;2.97;1.50;;;;;;;;;;5027638;28;20025;-59
2022/09/22 14:24:57;;;;;;;2.22;1.60;;;;;;;;;;5030928;28;20083;-59
2022/09/22 14:27:25;;;;;;;2.13;1.70;;;;;;;;;;5032761;28;20041;-59
2022/09/22 14:29:53;;;;;;;3.20;1.70;;;;;;;;;;5033152;28;20048;-59
2022/09/22 14:32:18;;;;;;;2.63;1.50;;;;;;;;;;5030108;28;20529;-59
2022/09/22 14:34:50;;;;;;;2.15;1.60;;;;;;;;;;5031526;28;20061;-59
2022/09/22 14:37:31;;;;;;;3.15;2.03;;;;;;;;;;5031035;28;20029;-59
2022/09/22 14:39:59;;;;;;;2.70;1.80;;;;;;;;;;5031436;28;20036;-59
2022/09/22 14:42:29;;;;;;;3.50;2.50;;;;;;;;;;5028630;28;20021;-59
2022/09/22 14:45:07;;;;;;;3.88;2.33;;;;;;;;;;5031156;28;20395;-59
2022/09/22 14:51:19;;;;;;;3.83;1.88;;;;;;;;;;5032799;28;20063;-60
2022/09/22 14:57:07;;;;;;;4.22;1.60;;;;;;;;;;5030410;28;20450;-60
2022/09/22 15:02:34;;;;;;;3.97;2.00;;;;;;;;;;5028604;28;20410;-60
2022/09/22 15:05:04;;;;;;;2.20;1.70;;;;;;;;;;5029711;28;20018;-60
2022/09/22 15:14:32;;;;;;;2.67;1.92;;;;;;;;;;5028499;28;20071;-58
2022/09/22 15:18:12;;;;;;;2.00;1.80;;;;;;;;;;5028814;28;20029;-58
2022/09/22 15:19:42;;;;;;;2.58;1.73;;;;;;;;;;5029192;28;20033;-58
2022/09/22 15:29:34;;;;;;;2.20;1.77;;;;;;;;;;5030918;28;20122;-58
2022/09/22 15:32:03;;;;;;;3.30;1.70;;;;;;;;;;5029999;28;20025;-59
2022/09/22 15:34:28;;;;;;;;;;;;;;;;;;5032498;28;20091;-58
2022/09/22 15:36:56;;;;;;;2.10;1.70;;;;;;;;;;5029881;28;20337;-58
2022/09/22 15:39:23;;;;;;;4.90;1.70;;;;;;;;;;5029157;28;20021;-58